Time;durP1;ratioP1;P1;durP2;ratioP2;P2;SDS_P1;SDS_P2;PMS_P1;PMS_P2;Temp;Humidity;BMP_temperature;BMP_pressure;BME280_temperature;BME280_humidity;BME280_pressure;Samples;Min_cycle;Max_cycle;Signal;HPM_P1;HPM_P2
2021/10/31 00:02:04;;;;;;;0.10;0.10;;;;;;;13.11;71.93;100624.75;5034242;28;20033;-81
2021/10/31 00:04:31;;;;;;;0.10;0.10;;;;;;;13.07;71.83;100624.88;5034020;28;20029;-81
2021/10/31 00:06:57;;;;;;;0.15;0.15;;;;;;;13.05;71.40;100626.75;5033800;28;20045;-81
2021/10/31 00:09:23;;;;;;;0.20;0.20;;;;;;;13.03;71.20;100632.09;5033896;28;20110;-81
2021/10/31 00:11:49;;;;;;;2.17;0.60;;;;;;;13.00;71.47;100628.69;5033612;28;20017;-81
2021/10/31 00:14:16;;;;;;;0.15;0.15;;;;;;;12.98;71.65;100626.06;5033683;28;20036;-81
2021/10/31 00:16:42;;;;;;;0.38;0.35;;;;;;;13.01;71.36;100627.75;5033439;28;20059;-81
2021/10/31 00:19:08;;;;;;;0.10;0.10;;;;;;;13.02;70.98;100626.84;5033495;28;20030;-81
2021/10/31 00:21:34;;;;;;;0.10;0.10;;;;;;;12.97;71.87;100621.66;5034202;28;20029;-82
2021/10/31 00:24:00;;;;;;;0.10;0.10;;;;;;;12.99;71.67;100634.94;5033841;28;20061;-81
2021/10/31 00:26:26;;;;;;;0.15;0.15;;;;;;;12.97;71.35;100631.44;5034053;28;20028;-81
2021/10/31 00:28:53;;;;;;;0.10;0.10;;;;;;;12.92;71.73;100634.25;5033769;28;20044;-81
2021/10/31 00:31:19;;;;;;;0.10;0.10;;;;;;;12.94;71.26;100643.06;5033183;28;20029;-81
2021/10/31 00:33:45;;;;;;;0.10;0.10;;;;;;;12.96;71.90;100646.53;5033126;28;20369;-81
2021/10/31 00:36:11;;;;;;;0.25;0.25;;;;;;;13.00;71.62;100644.66;5033082;28;20025;-81
2021/10/31 00:38:38;;;;;;;0.32;0.32;;;;;;;12.95;72.30;100645.66;5033322;28;20435;-81
2021/10/31 00:41:04;;;;;;;0.52;0.52;;;;;;;12.98;72.28;100644.69;5032888;28;20053;-81
2021/10/31 00:43:30;;;;;;;0.10;0.10;;;;;;;12.97;71.57;100642.94;5033359;28;20033;-81
2021/10/31 00:45:56;;;;;;;0.32;0.32;;;;;;;12.93;71.81;100649.28;5033261;28;20109;-81
2021/10/31 00:48:22;;;;;;;0.10;0.10;;;;;;;12.99;71.39;100645.56;5032630;28;20428;-81
2021/10/31 00:50:50;;;;;;;0.10;0.10;;;;;;;12.90;71.83;100652.94;5033306;28;20030;-82
2021/10/31 00:53:17;;;;;;;0.50;0.50;;;;;;;12.91;72.01;100660.00;5033367;28;20120;-82
2021/10/31 00:55:44;;;;;;;0.30;0.30;;;;;;;12.95;71.80;100655.44;5033507;28;20527;-82
2021/10/31 00:58:14;;;;;;;0.10;0.10;;;;;;;12.96;72.03;100665.16;5033362;28;20033;-81
2021/10/31 01:00:41;;;;;;;0.10;0.10;;;;;;;12.94;71.92;100670.50;5033042;28;20048;-82
2021/10/31 01:03:07;;;;;;;0.10;0.10;;;;;;;12.92;71.80;100661.72;5033219;28;20537;-82
2021/10/31 01:05:47;;;;;;;0.10;0.10;;;;;;;12.91;71.42;100665.31;5033123;28;20030;-81
2021/10/31 01:17:02;;;;;;;0.20;0.20;;;;;;;12.88;71.54;100677.81;5090564;27;20389;-82
2021/10/31 01:25:10;;;;;;;0.20;0.20;;;;;;;12.79;71.00;100658.59;5090506;28;20824;-82
2021/10/31 01:28:08;;;;;;;0.10;0.10;;;;;;;12.81;71.44;100662.97;5070010;28;20466;-82
2021/10/31 01:36:56;;;;;;;0.10;0.10;;;;;;;12.66;70.91;100664.34;5090465;27;20741;-82
2021/10/31 01:39:46;;;;;;;0.20;0.20;;;;;;;12.61;71.18;100649.41;5057099;28;20111;-82
2021/10/31 01:42:40;;;;;;;0.20;0.20;;;;;;;12.62;70.72;100644.97;5050446;28;20460;-82
2021/10/31 01:45:36;;;;;;;0.10;0.10;;;;;;;12.61;70.27;100651.19;5050215;28;20076;-81
2021/10/31 01:51:00;;;;;;;0.10;0.10;;;;;;;12.45;70.97;100653.47;5070928;28;20387;-80
2021/10/31 01:56:18;;;;;;;0.10;0.10;;;;;;;12.39;70.99;100656.31;5090931;27;20223;-81
2021/10/31 01:58:50;;;;;;;0.10;0.10;;;;;;;12.34;71.21;100666.22;5063487;28;20033;-81
2021/10/31 02:01:18;;;;;;;0.50;0.50;;;;;;;12.33;71.06;100667.13;5050399;28;20060;-81
2021/10/31 02:03:47;;;;;;;0.35;0.35;;;;;;;12.32;71.34;100668.06;5050434;28;20074;-81
2021/10/31 02:06:14;;;;;;;0.20;0.20;;;;;;;12.30;70.64;100662.78;5050549;28;20029;-81
2021/10/31 02:08:44;;;;;;;0.20;0.20;;;;;;;12.27;71.11;100668.19;5050161;28;20076;-81
2021/10/31 02:11:12;;;;;;;0.10;0.10;;;;;;;12.24;71.57;100663.81;5050537;28;20033;-81
2021/10/31 02:13:40;;;;;;;0.20;0.20;;;;;;;12.24;70.56;100671.81;5050319;28;20029;-81
2021/10/31 02:16:07;;;;;;;0.20;0.20;;;;;;;12.21;71.30;100668.34;5050455;28;20468;-81
2021/10/31 02:18:35;;;;;;;0.30;0.30;;;;;;;12.17;71.13;100670.22;5050695;28;20026;-81
2021/10/31 02:21:02;;;;;;;0.10;0.10;;;;;;;12.14;71.54;100675.66;5049921;28;20029;-81
2021/10/31 02:23:29;;;;;;;0.20;0.20;;;;;;;12.13;71.70;100665.94;5050186;28;20033;-81
2021/10/31 02:25:56;;;;;;;0.47;0.47;;;;;;;12.08;71.33;100663.41;5049030;28;20451;-81
2021/10/31 02:28:22;;;;;;;0.10;0.10;;;;;;;12.08;70.97;100662.56;5049748;28;20325;-81
2021/10/31 02:30:49;;;;;;;0.10;0.10;;;;;;;12.08;71.42;100668.72;5050203;28;20071;-81
2021/10/31 02:33:15;;;;;;;0.15;0.15;;;;;;;12.07;71.64;100666.13;5049972;28;20504;-81
2021/10/31 02:35:42;;;;;;;0.22;0.22;;;;;;;12.04;71.73;100666.22;5049379;28;20499;-82
2021/10/31 02:38:08;;;;;;;0.10;0.10;;;;;;;12.08;70.61;100668.72;5049859;28;20404;-81
2021/10/31 02:40:36;;;;;;;0.00;0.00;;;;;;;12.04;72.02;100663.56;5049583;28;20368;-81
2021/10/31 02:43:05;;;;;;;1.60;0.75;;;;;;;12.02;71.60;100668.03;5049620;28;20076;-81
2021/10/31 02:45:31;;;;;;;1.48;0.40;;;;;;;12.05;71.81;100663.50;5049787;28;20029;-81
2021/10/31 02:48:07;;;;;;;0.10;0.10;;;;;;;12.08;71.90;100668.72;5049314;28;20037;-81
2021/10/31 02:50:37;;;;;;;0.30;0.30;;;;;;;12.05;71.97;100658.19;5049913;28;20029;-81
2021/10/31 02:58:47;;;;;;;0.20;0.20;;;;;;;12.19;71.36;100654.28;5085085;27;20398;-81
2021/10/31 03:01:15;;;;;;;0.25;0.25;;;;;;;12.14;71.61;100655.25;5071107;28;20371;-80
2021/10/31 03:03:42;;;;;;;0.30;0.30;;;;;;;12.16;71.29;100649.91;5070806;28;20094;-81
2021/10/31 03:06:10;;;;;;;0.20;0.20;;;;;;;12.15;71.51;100653.50;5070797;28;20039;-82
2021/10/31 03:08:36;;;;;;;0.10;0.10;;;;;;;12.43;70.86;100645.53;5070854;28;20368;-81
2021/10/31 03:11:08;;;;;;;0.10;0.10;;;;;;;12.48;70.67;100650.72;5070405;28;20464;-82
2021/10/31 03:13:36;;;;;;;0.20;0.20;;;;;;;12.44;70.12;100643.75;5070702;28;20067;-81
2021/10/31 03:16:02;;;;;;;0.10;0.10;;;;;;;12.43;70.46;100642.88;5070345;28;20028;-81
2021/10/31 03:18:28;;;;;;;0.10;0.10;;;;;;;12.42;70.00;100641.16;5069853;28;20484;-81
2021/10/31 03:20:54;;;;;;;0.10;0.10;;;;;;;12.42;70.60;100638.50;5070303;28;20062;-81
2021/10/31 03:23:21;;;;;;;0.13;0.13;;;;;;;12.40;70.24;100642.09;5070432;28;20083;-81
2021/10/31 03:25:48;;;;;;;0.10;0.10;;;;;;;12.38;70.65;100638.63;5069997;28;20103;-81
2021/10/31 03:28:14;;;;;;;0.10;0.10;;;;;;;12.40;69.88;100637.66;5070422;28;20066;-81
2021/10/31 03:30:40;;;;;;;0.10;0.10;;;;;;;12.38;70.48;100633.31;5070306;28;20055;-81
2021/10/31 03:33:07;;;;;;;1.17;1.08;;;;;;;12.39;70.50;100627.09;5070336;28;20024;-81
2021/10/31 03:35:34;;;;;;;0.10;0.10;;;;;;;12.36;70.27;100622.75;5069181;28;20024;-81
2021/10/31 03:38:00;;;;;;;0.10;0.10;;;;;;;12.35;70.11;100623.66;5070030;28;20028;-81
2021/10/31 03:40:26;;;;;;;1.10;1.10;;;;;;;12.35;70.73;100626.31;5070043;28;20021;-81
2021/10/31 03:42:53;;;;;;;0.30;0.30;;;;;;;12.41;70.28;100627.91;5070179;28;20059;-81
2021/10/31 03:45:19;;;;;;;0.20;0.20;;;;;;;12.38;70.52;100620.91;5069380;28;20076;-81
2021/10/31 03:47:48;;;;;;;0.20;0.20;;;;;;;12.38;70.31;100617.38;5069743;28;20031;-81
2021/10/31 03:50:17;;;;;;;0.40;0.40;;;;;;;12.38;70.00;100618.25;5069225;28;20035;-81
2021/10/31 03:52:55;;;;;;;0.40;0.40;;;;;;;12.39;70.91;100619.13;5069487;28;20033;-81
2021/10/31 03:55:26;;;;;;;0.20;0.20;;;;;;;12.34;70.39;100618.41;5069159;28;20064;-81
2021/10/31 03:57:56;;;;;;;0.10;0.10;;;;;;;12.37;70.48;100612.97;5069332;28;20036;-80
2021/10/31 04:00:29;;;;;;;0.10;0.10;;;;;;;12.33;70.22;100614.88;5069865;28;20090;-81
2021/10/31 04:02:55;;;;;;;0.30;0.30;;;;;;;12.32;70.47;100609.59;5069715;28;20109;-81
2021/10/31 04:05:21;;;;;;;0.63;0.63;;;;;;;12.35;70.92;100607.72;5069314;28;20079;-82
2021/10/31 04:07:48;;;;;;;0.10;0.10;;;;;;;12.36;70.42;100608.59;5067036;28;20037;-81
2021/10/31 04:10:14;;;;;;;0.00;0.00;;;;;;;12.34;70.72;100618.41;5055868;28;20083;-81
2021/10/31 04:12:41;;;;;;;0.10;0.10;;;;;;;12.34;71.04;100613.94;5056282;28;20032;-81
2021/10/31 04:15:08;;;;;;;3.03;1.00;;;;;;;12.30;70.87;100613.16;5056206;28;20096;-81
2021/10/31 04:17:34;;;;;;;0.17;0.17;;;;;;;12.40;70.89;100610.22;5056099;28;20120;-81
2021/10/31 04:20:00;;;;;;;0.15;0.15;;;;;;;12.42;70.98;100611.03;5055577;28;20487;-81
2021/10/31 04:22:28;;;;;;;2.03;0.75;;;;;;;12.43;71.19;100610.13;5055658;28;20470;-81
2021/10/31 04:24:55;;;;;;;0.80;0.80;;;;;;;12.41;70.92;100604.00;5056000;28;20045;-81
2021/10/31 04:27:21;;;;;;;0.10;0.10;;;;;;;12.46;70.66;100596.75;5055600;28;20068;-81
2021/10/31 04:29:47;;;;;;;0.95;0.95;;;;;;;12.41;70.87;100590.72;5055183;28;20438;-81
2021/10/31 04:32:13;;;;;;;1.08;0.75;;;;;;;12.48;70.45;100600.22;5055658;28;20048;-81
2021/10/31 04:34:39;;;;;;;3.20;2.15;;;;;;;12.51;70.04;100602.81;5055481;28;20017;-81
2021/10/31 04:37:06;;;;;;;0.10;0.10;;;;;;;12.51;70.68;100599.25;5055570;28;20349;-81
2021/10/31 04:39:32;;;;;;;0.10;0.10;;;;;;;12.47;70.41;100595.81;5055027;28;20025;-81
2021/10/31 04:42:04;;;;;;;0.10;0.10;;;;;;;12.44;70.34;100602.09;5055493;28;20039;-81
2021/10/31 04:44:31;;;;;;;0.43;0.43;;;;;;;12.36;71.04;100589.97;5055290;28;20464;-82
2021/10/31 04:46:59;;;;;;;0.20;0.20;;;;;;;12.44;70.37;100607.41;5055391;28;20028;-81
2021/10/31 04:49:26;;;;;;;1.65;1.55;;;;;;;12.44;70.19;100595.94;5055195;28;20047;-81
2021/10/31 04:51:52;;;;;;;0.52;0.52;;;;;;;12.33;70.66;100598.91;5055495;28;20388;-81
2021/10/31 04:54:18;;;;;;;0.20;0.20;;;;;;;12.05;71.67;100596.25;5055373;28;20029;-81
2021/10/31 04:56:44;;;;;;;0.45;0.45;;;;;;;12.03;71.27;100593.63;5055216;28;20561;-81
2021/10/31 04:59:11;;;;;;;0.98;0.98;;;;;;;12.00;70.81;100593.75;5055388;28;20041;-81
2021/10/31 05:01:37;;;;;;;0.10;0.10;;;;;;;11.97;71.42;100592.06;5055397;28;20060;-81
2021/10/31 05:04:03;;;;;;;0.10;0.10;;;;;;;11.88;71.74;100592.28;5055256;28;20477;-81
2021/10/31 05:06:30;;;;;;;0.45;0.45;;;;;;;11.87;71.61;100595.84;5055404;28;20027;-81
2021/10/31 05:08:57;;;;;;;0.20;0.20;;;;;;;11.86;71.69;100588.78;5054728;28;20450;-81
2021/10/31 05:11:24;;;;;;;0.20;0.20;;;;;;;11.86;71.34;100583.47;5054991;28;20379;-81
2021/10/31 05:13:50;;;;;;;0.10;0.10;;;;;;;11.87;71.60;100592.31;5055049;28;20059;-81
2021/10/31 05:16:16;;;;;;;0.10;0.10;;;;;;;11.86;71.53;100586.13;5054705;28;20025;-81
2021/10/31 05:18:42;;;;;;;0.10;0.10;;;;;;;11.86;71.78;100583.47;5055118;28;20411;-82
2021/10/31 05:21:09;;;;;;;0.17;0.17;;;;;;;11.77;72.54;100579.31;5053933;28;20021;-81
2021/10/31 05:23:35;;;;;;;0.32;0.32;;;;;;;11.86;72.04;100583.47;5054786;28;20468;-81
2021/10/31 05:26:02;;;;;;;0.13;0.13;;;;;;;11.85;71.96;100568.50;5054836;28;20029;-81
2021/10/31 05:28:28;;;;;;;0.30;0.30;;;;;;;11.82;71.76;100564.13;5054064;28;20036;-80
2021/10/31 05:30:55;;;;;;;0.50;0.50;;;;;;;11.75;71.91;100562.56;5054439;28;20177;-81
2021/10/31 05:33:23;;;;;;;0.35;0.35;;;;;;;11.78;72.07;100569.56;5054512;28;20087;-81
2021/10/31 05:35:51;;;;;;;0.20;0.20;;;;;;;11.77;71.93;100567.84;5054788;28;20495;-81
2021/10/31 05:38:19;;;;;;;0.10;0.10;;;;;;;11.72;71.63;100557.34;5054445;28;20120;-81
2021/10/31 05:40:47;;;;;;;0.10;0.10;;;;;;;11.64;71.82;100551.41;5054604;28;20029;-81
2021/10/31 05:43:14;;;;;;;0.10;0.10;;;;;;;11.89;70.86;100556.84;5054847;28;20061;-81
2021/10/31 05:45:40;;;;;;;0.57;0.57;;;;;;;11.93;70.78;100553.19;5054548;28;20032;-81
2021/10/31 05:48:06;;;;;;;0.15;0.15;;;;;;;11.95;70.32;100551.34;5053755;28;20025;-81
2021/10/31 05:50:33;;;;;;;1.95;1.00;;;;;;;11.98;70.32;100542.47;5054437;28;20028;-81
2021/10/31 05:52:59;;;;;;;0.10;0.10;;;;;;;11.95;70.24;100540.75;5054309;28;20108;-81
2021/10/31 05:55:25;;;;;;;0.15;0.15;;;;;;;11.92;70.25;100540.81;5054324;28;20380;-81
2021/10/31 05:57:51;;;;;;;3.70;1.65;;;;;;;11.91;70.29;100538.22;5053840;28;20036;-81
2021/10/31 06:00:18;;;;;;;1.23;1.23;;;;;;;11.91;69.85;100535.56;5053628;28;20056;-81
2021/10/31 06:02:45;;;;;;;0.10;0.10;;;;;;;11.93;70.03;100539.06;5053978;28;20100;-81
2021/10/31 06:05:13;;;;;;;0.17;0.17;;;;;;;11.90;70.85;100532.03;5053577;28;20087;-81
2021/10/31 06:07:41;;;;;;;0.20;0.20;;;;;;;11.89;70.24;100521.47;5053762;28;20068;-81
2021/10/31 06:10:09;;;;;;;0.52;0.52;;;;;;;11.88;70.54;100514.44;5053569;28;20108;-81
2021/10/31 06:12:36;;;;;;;0.20;0.20;;;;;;;11.88;70.53;100520.59;5053706;28;20037;-81
2021/10/31 06:15:03;;;;;;;1.02;1.02;;;;;;;11.88;70.38;100517.94;5054122;28;20045;-81
2021/10/31 06:17:30;;;;;;;0.20;0.20;;;;;;;11.85;71.10;100515.41;5053531;28;20029;-81
2021/10/31 06:19:57;;;;;;;0.30;0.30;;;;;;;11.88;70.36;100527.69;5053080;28;20545;-81
2021/10/31 06:22:23;;;;;;;0.10;0.10;;;;;;;11.87;70.46;100521.50;5053583;28;20479;-81
2021/10/31 06:24:49;;;;;;;2.08;1.45;;;;;;;11.88;71.10;100520.59;5054004;28;20041;-81
2021/10/31 06:27:15;;;;;;;0.20;0.20;;;;;;;11.90;70.64;100510.81;5053776;28;20025;-81
2021/10/31 06:29:41;;;;;;;0.10;0.10;;;;;;;11.92;70.52;100503.66;5054217;28;20064;-81
2021/10/31 06:32:07;;;;;;;0.22;0.22;;;;;;;11.96;70.47;100501.81;5053408;28;20032;-81
2021/10/31 06:34:33;;;;;;;1.35;1.35;;;;;;;11.95;70.19;100498.25;5053556;28;20077;-81
2021/10/31 06:37:00;;;;;;;0.10;0.10;;;;;;;11.90;70.73;100508.16;5053597;28;20036;-81
2021/10/31 06:39:26;;;;;;;9.40;2.30;;;;;;;11.95;70.53;100498.25;5053432;28;20037;-81
2021/10/31 06:41:52;;;;;;;0.10;0.10;;;;;;;11.93;70.74;100494.78;5053375;28;20150;-81
2021/10/31 06:44:18;;;;;;;0.10;0.10;;;;;;;11.93;71.43;100493.91;5053305;28;20029;-81
2021/10/31 06:46:44;;;;;;;0.20;0.20;;;;;;;11.98;70.92;100487.56;5053245;28;20068;-81
2021/10/31 06:49:12;;;;;;;0.10;0.10;;;;;;;11.97;71.03;100491.16;5053173;28;20033;-81
2021/10/31 06:51:38;;;;;;;3.50;1.65;;;;;;;12.03;70.57;100491.88;5053597;28;20067;-81
2021/10/31 06:54:04;;;;;;;1.65;1.55;;;;;;;12.03;70.56;100487.41;5053300;28;20029;-81
2021/10/31 06:56:31;;;;;;;0.10;0.10;;;;;;;12.01;70.58;100489.25;5053365;28;20029;-81
2021/10/31 06:58:58;;;;;;;0.10;0.10;;;;;;;12.06;70.66;100489.09;5052833;28;20037;-81
2021/10/31 07:01:24;;;;;;;0.52;0.52;;;;;;;12.10;70.84;100475.69;5052692;28;20082;-81
2021/10/31 07:03:53;;;;;;;0.10;0.10;;;;;;;12.05;71.47;100472.31;5053337;28;20032;-81
2021/10/31 07:06:19;;;;;;;0.10;0.10;;;;;;;12.13;71.31;100470.25;5053257;28;20036;-81
2021/10/31 07:08:45;;;;;;;0.10;0.10;;;;;;;12.11;71.31;100455.31;5052915;28;20033;-81
2021/10/31 07:11:12;;;;;;;0.30;0.30;;;;;;;12.16;70.94;100448.03;5053203;28;20052;-81
2021/10/31 07:13:39;;;;;;;0.17;0.17;;;;;;;12.17;71.14;100444.47;5053046;28;20037;-81
2021/10/31 07:16:05;;;;;;;0.35;0.35;;;;;;;12.17;71.29;100439.16;5052956;28;20387;-81
2021/10/31 07:18:32;;;;;;;1.17;1.05;;;;;;;12.25;70.82;100430.94;5053199;28;20100;-81
2021/10/31 07:20:58;;;;;;;0.38;0.38;;;;;;;12.31;71.18;100436.03;5053477;28;20029;-81
2021/10/31 07:23:24;;;;;;;0.10;0.10;;;;;;;12.28;71.34;100447.63;5052900;28;20048;-80
2021/10/31 07:25:51;;;;;;;0.30;0.30;;;;;;;12.35;71.70;100443.00;5052591;28;20468;-81
2021/10/31 07:28:17;;;;;;;0.52;0.52;;;;;;;12.47;70.81;100444.38;5051881;28;20037;-81
2021/10/31 07:30:44;;;;;;;0.75;0.75;;;;;;;12.47;71.32;100441.72;5052757;28;20029;-81
2021/10/31 07:33:10;;;;;;;0.57;0.57;;;;;;;12.53;70.94;100441.50;5053086;28;20453;-81
2021/10/31 07:35:36;;;;;;;0.47;0.47;;;;;;;12.56;71.48;100440.53;5052662;28;20033;-81
2021/10/31 07:38:03;;;;;;;0.40;0.40;;;;;;;12.60;71.09;100448.34;5052470;28;20090;-81
2021/10/31 07:40:29;;;;;;;0.10;0.10;;;;;;;12.65;71.09;100449.97;5052947;28;20060;-81
2021/10/31 07:42:55;;;;;;;0.40;0.40;;;;;;;12.69;70.65;100439.19;5052896;28;20464;-81
2021/10/31 07:45:22;;;;;;;0.10;0.10;;;;;;;12.76;70.57;100434.50;5056504;28;20488;-81
2021/10/31 07:47:48;;;;;;;0.10;0.10;;;;;;;12.83;71.14;100444.00;5056339;28;20440;-82
2021/10/31 07:50:15;;;;;;;0.13;0.13;;;;;;;12.86;70.80;100443.91;5056050;28;20025;-82
2021/10/31 07:52:43;;;;;;;0.20;0.20;;;;;;;12.93;70.66;100440.09;5056321;28;20158;-81
2021/10/31 07:55:14;;;;;;;0.20;0.20;;;;;;;12.92;71.15;100448.13;5056447;28;20610;-82
2021/10/31 07:57:40;;;;;;;3.78;1.27;;;;;;;12.92;70.97;100449.00;5056783;28;20029;-82
2021/10/31 08:00:07;;;;;;;0.45;0.45;;;;;;;12.98;71.01;100444.38;5056234;28;20029;-82
2021/10/31 08:02:33;;;;;;;0.10;0.10;;;;;;;13.05;70.54;100445.91;5056736;28;20044;-83
2021/10/31 08:04:59;;;;;;;0.47;0.47;;;;;;;13.03;71.18;100439.75;5056342;28;20033;-81
2021/10/31 08:07:30;;;;;;;1.30;1.23;;;;;;;13.14;70.81;100432.25;5055993;28;20037;-82
2021/10/31 08:09:59;;;;;;;0.10;0.10;;;;;;;13.19;70.83;100429.41;5056217;28;20029;-81
2021/10/31 08:12:27;;;;;;;0.10;0.10;;;;;;;13.21;71.02;100417.78;5056392;28;20472;-82
2021/10/31 08:14:53;;;;;;;0.03;0.03;;;;;;;13.32;71.06;100413.84;5055893;28;20091;-81
2021/10/31 08:17:19;;;;;;;0.32;0.32;;;;;;;13.34;71.23;100407.53;5053806;28;20051;-81
2021/10/31 08:19:46;;;;;;;0.57;0.57;;;;;;;13.40;70.89;100402.00;5055688;28;20040;-81
2021/10/31 08:22:12;;;;;;;0.30;0.30;;;;;;;13.43;70.58;100385.06;5056018;28;20033;-81
2021/10/31 08:24:38;;;;;;;0.50;0.50;;;;;;;13.42;70.86;100386.88;5055985;28;20033;-81
2021/10/31 08:27:05;;;;;;;0.40;0.40;;;;;;;13.53;70.56;100381.13;5055400;28;20099;-82
2021/10/31 08:29:31;;;;;;;0.10;0.10;;;;;;;13.52;70.28;100374.06;5055704;28;20460;-81
2021/10/31 08:31:57;;;;;;;0.20;0.20;;;;;;;13.57;70.80;100380.06;5056020;28;20017;-81
2021/10/31 08:34:25;;;;;;;0.80;0.80;;;;;;;13.70;70.42;100367.13;5056078;28;20078;-80
2021/10/31 08:36:51;;;;;;;0.10;0.10;;;;;;;13.79;70.49;100349.91;5055211;28;20116;-79
2021/10/31 08:39:17;;;;;;;0.57;0.57;;;;;;;13.88;70.42;100359.31;5055411;28;20029;-82
2021/10/31 08:41:43;;;;;;;0.47;0.47;;;;;;;13.97;70.56;100356.28;5055611;28;20025;-81
2021/10/31 08:44:11;;;;;;;0.10;0.10;;;;;;;14.09;69.91;100352.22;5055663;28;20040;-81
2021/10/31 08:46:40;;;;;;;0.43;0.43;;;;;;;14.19;70.15;100342.03;5055631;28;20040;-83
2021/10/31 08:49:08;;;;;;;0.10;0.10;;;;;;;14.33;69.78;100328.09;5055058;28;20036;-82
2021/10/31 08:51:34;;;;;;;0.38;0.38;;;;;;;14.37;68.91;100330.56;5056519;28;20021;-83
2021/10/31 08:54:01;;;;;;;0.00;0.00;;;;;;;14.40;69.08;100329.56;5055757;28;20452;-83
2021/10/31 08:56:29;;;;;;;0.32;0.32;;;;;;;14.54;68.58;100327.16;5055172;28;20495;-82
2021/10/31 08:58:56;;;;;;;0.10;0.10;;;;;;;14.59;69.04;100336.75;5055749;28;20033;-82
2021/10/31 09:01:22;;;;;;;2.63;0.80;;;;;;;14.52;67.87;100334.34;5055192;28;20029;-83
2021/10/31 09:03:50;;;;;;;0.10;0.10;;;;;;;14.58;68.93;100335.88;5056537;28;20032;-82
2021/10/31 09:06:16;;;;;;;0.60;0.52;;;;;;;14.61;68.04;100332.22;5055263;28;20056;-82
2021/10/31 09:08:43;;;;;;;0.15;0.15;;;;;;;14.62;67.68;100318.81;5055434;28;20029;-82
2021/10/31 09:11:11;;;;;;;0.10;0.10;;;;;;;14.75;68.38;100312.97;5055853;28;20067;-82
2021/10/31 09:13:37;;;;;;;0.40;0.40;;;;;;;14.69;67.96;100317.63;5055682;28;20025;-82
2021/10/31 09:16:04;;;;;;;1.25;0.88;;;;;;;14.75;67.70;100313.81;5055451;28;20108;-82
2021/10/31 09:18:32;;;;;;;0.10;0.10;;;;;;;14.82;67.87;100306.41;5055044;28;20037;-83
2021/10/31 09:20:59;;;;;;;1.35;0.65;;;;;;;14.82;67.60;100298.41;5055385;28;20040;-83
2021/10/31 09:23:25;;;;;;;0.20;0.20;;;;;;;14.88;67.79;100301.66;5055133;28;20545;-82
2021/10/31 09:25:51;;;;;;;0.47;0.47;;;;;;;14.94;67.62;100287.16;5054758;28;20025;-82
2021/10/31 09:28:17;;;;;;;0.30;0.30;;;;;;;14.90;67.28;100276.69;5055228;28;20490;-82
2021/10/31 09:30:44;;;;;;;0.10;0.10;;;;;;;14.98;67.16;100282.56;5054634;28;20043;-83
2021/10/31 09:33:12;;;;;;;0.10;0.10;;;;;;;15.02;67.42;100279.66;5054943;28;20461;-83
2021/10/31 09:35:44;;;;;;;0.10;0.10;;;;;;;14.96;66.78;100273.75;5054514;28;20064;-82
2021/10/31 09:38:11;;;;;;;0.20;0.20;;;;;;;15.03;67.38;100261.84;5054562;28;20037;-82
2021/10/31 09:40:38;;;;;;;0.10;0.10;;;;;;;14.99;66.75;100262.91;5054928;28;20033;-83
2021/10/31 09:43:05;;;;;;;0.10;0.10;;;;;;;15.04;67.05;100258.22;5054742;28;20040;-82
2021/10/31 09:45:34;;;;;;;1.75;1.65;;;;;;;15.06;67.85;100253.69;5054541;28;20486;-80
2021/10/31 09:48:03;;;;;;;0.55;0.55;;;;;;;15.12;67.37;100242.72;5054345;28;20040;-80
2021/10/31 09:50:33;;;;;;;0.32;0.32;;;;;;;15.11;66.87;100242.81;5054498;28;20450;-82
2021/10/31 09:53:00;;;;;;;0.10;0.10;;;;;;;15.13;67.18;100228.44;5054353;28;20060;-83
2021/10/31 09:55:27;;;;;;;0.15;0.15;;;;;;;15.09;67.35;100216.19;5054180;28;20056;-82
2021/10/31 09:57:54;;;;;;;0.68;0.68;;;;;;;15.14;66.66;100211.50;5054529;28;20040;-83
2021/10/31 10:00:31;;;;;;;0.05;0.05;;;;;;;15.19;66.65;100200.59;5053947;28;20119;-85
2021/10/31 10:05:42;;;;;;;0.40;0.40;;;;;;;15.39;66.56;100191.59;5070781;28;20375;-85
2021/10/31 10:08:13;;;;;;;0.25;0.25;;;;;;;15.47;67.32;100181.38;5070810;28;20064;-83
2021/10/31 10:10:56;;;;;;;1.45;1.38;;;;;;;15.60;66.86;100175.41;5050705;28;20116;-84
2021/10/31 10:16:29;;;;;;;0.32;0.32;;;;;;;15.66;66.02;100169.75;5090775;28;20174;-84
2021/10/31 10:18:56;;;;;;;0.13;0.13;;;;;;;15.72;65.75;100180.13;5064186;28;20029;-85
2021/10/31 10:21:26;;;;;;;0.28;0.28;;;;;;;15.80;65.43;100174.38;5050583;28;20113;-84
2021/10/31 10:24:05;;;;;;;0.10;0.10;;;;;;;15.91;65.80;100176.50;5050521;28;20461;-84
2021/10/31 10:31:59;;;;;;;0.10;0.10;;;;;;;15.95;65.47;100162.03;5070255;28;20448;-85
2021/10/31 10:37:28;;;;;;;0.10;0.10;;;;;;;15.95;65.70;100156.69;5090526;27;20773;-84
2021/10/31 10:39:59;;;;;;;0.30;0.30;;;;;;;16.04;65.56;100145.53;5055411;28;20516;-84
2021/10/31 10:42:29;;;;;;;0.10;0.10;;;;;;;16.07;65.05;100145.34;5050730;28;20029;-84
2021/10/31 10:44:58;;;;;;;0.10;0.10;;;;;;;16.07;64.72;100129.31;5050571;28;20057;-84
2021/10/31 10:47:26;;;;;;;0.17;0.17;;;;;;;16.11;64.18;100124.66;5050680;28;20120;-84
2021/10/31 10:49:54;;;;;;;0.10;0.10;;;;;;;16.11;65.07;100116.66;5050214;28;20057;-83
2021/10/31 10:55:15;;;;;;;0.10;0.10;;;;;;;16.06;64.16;100105.34;5090717;28;20409;-84
2021/10/31 10:57:44;;;;;;;0.32;0.32;;;;;;;16.06;64.50;100094.66;5070676;28;20493;-84
2021/10/31 11:03:06;;;;;;;0.40;0.40;;;;;;;16.14;64.63;100087.09;5052623;28;20889;-85
2021/10/31 11:05:38;;;;;;;0.10;0.10;;;;;;;16.15;65.28;100089.69;5047915;28;20025;-84
2021/10/31 11:08:11;;;;;;;0.10;0.10;;;;;;;16.18;64.84;100076.13;5044993;28;20025;-83
2021/10/31 11:10:44;;;;;;;0.10;0.10;;;;;;;16.05;64.15;100068.88;5025896;28;20057;-81
2021/10/31 11:13:11;;;;;;;0.10;0.10;;;;;;;15.96;63.99;100051.56;5024551;28;20117;-85
2021/10/31 11:15:38;;;;;;;0.20;0.20;;;;;;;16.08;64.10;100050.88;5026233;28;20033;-84
2021/10/31 11:18:07;;;;;;;0.10;0.10;;;;;;;16.14;63.81;100058.56;5025185;28;20080;-78
2021/10/31 11:20:39;;;;;;;0.10;0.10;;;;;;;16.15;64.21;100064.78;5022410;28;20038;-81
2021/10/31 11:23:09;;;;;;;0.10;0.10;;;;;;;16.17;64.59;100073.56;5025357;28;20034;-81
2021/10/31 11:25:38;;;;;;;0.10;0.10;;;;;;;16.07;64.31;100067.84;5023601;28;20068;-78
2021/10/31 11:28:06;;;;;;;0.10;0.10;;;;;;;16.04;63.80;100060.03;5028542;28;20034;-82
2021/10/31 11:30:35;;;;;;;0.10;0.10;;;;;;;16.05;63.69;100051.06;5026602;28;20056;-80
2021/10/31 11:33:02;;;;;;;0.45;0.45;;;;;;;16.05;63.97;100045.72;5022290;28;20121;-81
2021/10/31 11:35:30;;;;;;;0.40;0.40;;;;;;;16.05;63.85;100040.38;5020771;28;20021;-78
2021/10/31 11:38:07;;;;;;;0.63;0.63;;;;;;;16.06;62.89;100041.22;5022132;28;20030;-77
2021/10/31 11:40:39;;;;;;;0.10;0.10;;;;;;;16.09;63.69;100025.03;5022606;28;20037;-76
2021/10/31 11:43:23;;;;;;;0.10;0.10;;;;;;;16.01;63.24;100018.31;5014975;28;20042;-76
2021/10/31 11:45:52;;;;;;;0.13;0.13;;;;;;;16.03;63.33;100018.22;5019407;28;20037;-80
2021/10/31 11:48:22;;;;;;;0.10;0.10;;;;;;;16.04;63.23;100017.28;5023838;28;20029;-77
2021/10/31 11:56:40;;;;;;;0.10;0.10;;;;;;;15.97;63.40;99989.16;5123383;27;20414;-78
2021/10/31 12:01:57;;;;;;;0.20;0.20;;;;;;;15.91;63.57;99950.28;5161358;27;20349;-83
2021/10/31 12:05:20;;;;;;;0.10;0.10;;;;;;;16.00;63.39;99964.97;5145459;27;20477;-80
2021/10/31 12:07:39;;;;;;;3.40;1.65;;;;;;;15.96;63.68;99982.09;5148154;27;20031;-77
2021/10/31 12:10:30;;;;;;;0.77;0.77;;;;;;;15.98;63.59;99965.03;5131412;27;20038;-79
2021/10/31 12:13:16;;;;;;;3.78;0.80;;;;;;;16.01;64.12;99958.66;5124697;27;20035;-85
2021/10/31 12:18:50;;;;;;;0.10;0.10;;;;;;;15.94;64.28;99925.25;5073556;28;20431;-84
2021/10/31 12:26:43;;;;;;;0.10;0.10;;;;;;;16.09;63.95;99916.31;5104447;27;20458;-79
2021/10/31 12:29:27;;;;;;;0.20;0.20;;;;;;;16.11;63.56;99911.78;5088155;22;20128;-84
2021/10/31 12:31:59;;;;;;;0.10;0.10;;;;;;;16.20;63.52;99906.81;5050845;28;20076;-83
2021/10/31 12:34:32;;;;;;;;;;;;;;;16.31;63.11;99902.56;5051257;28;20032;-83
2021/10/31 12:36:58;;;;;;;0.40;0.40;;;;;;;16.27;63.05;99894.81;5050797;28;19975;-83
2021/10/31 12:42:26;;;;;;;0.10;0.10;;;;;;;16.37;63.33;99879.94;5111116;27;20388;-84
2021/10/31 12:44:58;;;;;;;0.10;0.10;;;;;;;16.25;63.52;99870.88;5110239;28;20490;-85